McNary Field
KSLE : now visible

Airfield :











YOU CAN JOIN US ON...

 
LOGIN :

Register | Disclaimer

   EN    FR    IT 

 









Legend :    VFR   Marginal VFR   IFR   Intensive IFR   Very Intensive IFR
Visi :
Ceiling :
>= 8 km
>= 3000ft
5 to 8 km
1000 to 3000 ft
1500m to 5 km
500 to 1000 ft
800 to 1500m
200 to 500 ft
< 800m
< 200 ft
Symbols :   Thunderstorms  Fog  Heavy snow  Heavy precipitations  Wind > 20 kt






- Airport Elevation : 214 ft


KSLE - McNary Field

CURRENT METAR :
  • 291656Z 00000KT 10SM CLR 21/08 A2993 RMK AO2 SLP132 T02060083

EXPIRED METARs :
  • 291556Z 34003KT 10SM CLR 19/09 A2994 RMK AO2 SLP136 T01890094
  • 291456Z 34005KT 10SM CLR 17/09 A2995 RMK AO2 SLP139 T01670089 52007

TAF KSLE
Valid from the 29 at 18:00 until the 30 at 18:00 UTC


291737Z 2918/3018 VRB02KT P6SM SCT250
FM292100 01008KT P6SM SCT250
FM300000 32008KT P6SM SCT250
FM300700 30005KT P6SM BKN200
FM301200 34005KT P6SM -SHRA SCT040 BKN120
KZSE FIR / North America



MET'MAP, your aeronautical weather chart ! - Copyright ORBIFLY December 2007 - Disclaimer

ORBIFLY MET'MAP TEAM :

Programming & Development : Alexandra Zaïnal
Concept & original design : Baudouin d'Aumeries
Assistance for programming : Marc-Olivier Méhu
Technical & hardware support : Manuel Goepfert

Contact : metmap@orbifly.com




SOURCES & CREDITS :

   NOAA       Earth
Advisory